Historyczne dane pomiarowe

Dodano dane terminowe – wersja testowa.

Dane z okresu 1951-2019

Wersja bazy: 1.34 [2019-03-16, lista zmian], aktualizacja planowana na 2019-04-15

Dane meteo z obszaru Polski uzyskane na podstawie danych udostępnionych przez Instytut Meteorologii i Gospodarki Wodnej – Państwowy Instytut Badawczy.

 

Wybierz Datę:    

       

TemperaturaWilgotnośćWiatrCiśnienieOpadyŚniegCzas trwania zjawisk
 Stacja t tx tn tng RH VA  wxwx mslp ppp RRR   cm mm wxwxwxwxwxwxwx
1994-08-14 15.7 20.1 12.8 10.6 74.8- 6.3 3.3---- 0.0------------
1994-08-13 17.8 22.1 15.2 14.6 82.0- 7.0 3.3---- 4.0------------
1994-08-12 18.0 20.6 13.0 12.6 87.3- 7.7 2.3---- 0.0------------
1994-08-11 17.5 25.1 13.3 12.6 87.8- 7.7 2.3---- 23.2------------
1994-08-10 20.3 26.1 16.2 15.6 78.0- 5.7 2.0---- 14.5------------
1994-08-09 18.9 30.3 14.8 13.6 82.0- 8.0 3.7---- 7.5------------
1994-08-08 22.1 30.6 16.9 15.6 79.3- 6.7 1.7---- 0.5------------
1994-08-07 21.6 29.9 12.3 11.6 77.8- 5.7 1.0---- 0.0------------
1994-08-06 21.6 31.1 10.2 8.6 70.5- 0.7 1.0---- 0.0------------
1994-08-05 22.2 29.9 13.8 13.6 72.8- 3.3 1.0---- 0.0------------
1994-08-04 22.0 28.6 17.4 16.8 80.0- 7.0 2.0---- 0.0------------
1994-08-03 23.9 31.9 17.4 15.8 74.0- 5.7 2.3---- 5.5------------
1994-08-02 23.3 32.9 11.4 10.6 71.8- 1.3 1.0---- 0.0------------
1994-08-01 23.8 32.7 13.3 12.6 73.0- 2.7 1.0---- 0.0------------
1994-07-31 23.5 33.1 13.2 11.6 71.8- 0.3 1.7---- 0.0------------
1994-07-30 23.2 32.3 12.2 10.6 69.5- 0.7 2.0---- 0.0------------
1994-07-29 22.7 32.4 10.3 8.6 69.5- 1.0 2.0---- 0.0------------
1994-07-28 22.7 32.3 13.0 10.6 72.3- 0.7 1.7---- 0.0------------
1994-07-27 23.0 32.1 11.8 10.6 69.8- 2.3 1.7---- 0.0------------
1994-07-26 22.0 31.7 9.8 8.6 68.8- 1.0 1.3---- 0.0------------
1994-07-25 21.1 30.9 10.3 9.1 77.3- 1.3 1.7---- 0.0------------
1994-07-24 21.1 29.1 10.0 8.6 76.5- 2.0 1.3---- 0.0------------
1994-07-23 19.8 27.7 10.8 9.6 78.0- 1.3 1.7---- 0.0------------
1994-07-22 19.3 27.1 8.8 7.6 74.5- 0.7 2.7---- 0.0------------
1994-07-21 18.5 25.4 7.8 6.6 78.3- 0.0 1.3---- 0.0------------
1994-07-20 18.7 23.9 11.8 10.6 73.3- 2.3 1.7---- 0.0------------
1994-07-19 19.7 25.1 13.8 12.6 80.3- 5.0 1.7---- 0.0------------
1994-07-18 19.7 26.0 17.1 15.6 87.5- 7.3 1.3---- 0.5------------
1994-07-17 23.2 29.6 14.4 12.6 78.5- 3.3 2.3---- 18.0------------
1994-07-16 20.7 30.1 9.8 7.6 82.5- 3.3 1.0---- 0.0------------
1994-07-15 21.6 27.9 12.8 11.6 81.3- 4.3 2.3---- 0.0------------
1994-07-14 20.6 29.0 11.0 9.6 81.5- 6.0 2.0---- 0.0------------
1994-07-13 19.9 27.4 10.0 8.6 77.8- 4.0 2.0---- 0.0------------
1994-07-12 20.8 27.1 11.8 10.6 77.3- 5.0 1.7---- 0.0------------
1994-07-11 16.6 21.6 11.8 9.1 94.0- 7.0 2.0---- 0.0------------
1994-07-10 15.7 21.1 10.8 9.6 87.3- 8.0 1.7---- 0.8------------
1994-07-09 12.9 18.7 6.8 5.6 95.5- 7.3 1.3---- 3.6------------
1994-07-08 18.3 22.4 14.8 12.6 82.5- 7.3 1.7---- 0.0------------
1994-07-07 18.5 27.3 7.8 5.6 79.3- 5.0 2.3---- 1.4------------
1994-07-06 19.8 24.6 9.8 8.6 74.5- 2.3 2.0---- 0.0------------
1994-07-05 18.8 27.3 8.8 7.6 79.0- 5.7 2.0---- 0.0------------
1994-07-04 19.9 26.6 7.8 5.6 77.0- 0.7 1.3---- 0.0------------
1994-07-03 18.1 25.1 6.8 5.6 76.8- 0.3 1.3---- 0.0------------
1994-07-02 17.8 23.6 7.8 6.6 78.3- 0.7 1.7---- 0.0------------
1994-07-01 20.1 23.1 16.9 15.6 74.0- 2.7 2.7---- 0.0------------
1994-06-30 21.8 30.1 13.8 12.6 88.0- 5.3 2.0---- 0.8------------
1994-06-29 23.1 30.4 12.8 11.1 74.3- 0.7 1.0---- 0.0------------
1994-06-28 23.7 29.1 15.8 12.6 75.8- 2.0 2.0---- 0.0------------
1994-06-27 24.3 30.9 15.0 11.8 64.8- 3.0 2.0---- 0.0------------
1994-06-26 17.5 26.9 4.9 2.7 70.3- 0.3 2.0---- 0.0------------
1994-06-25 14.4 22.0 3.7 1.2 76.8- 0.0 1.0---- 0.0------------
1994-06-24 13.5 19.6 4.9 2.7 69.8- 0.7 4.3---- 0.0------------
1994-06-23 18.2 22.0 16.0 13.6 68.3- 3.7 5.7---- 0.0------------
1994-06-22 17.1 26.9 5.9 4.1 78.3- 4.7 3.7---- 0.5------------
1994-06-21 15.3 20.0 5.9 3.7 78.8- 2.0 1.7---- 0.0------------
1994-06-20 17.1 21.5 11.0 8.6 79.5- 3.3 5.3---- 0.0------------
1994-06-19 16.5 22.5 9.8 9.6 79.8- 6.7 5.0---- 0.0------------
1994-06-18 10.8 18.2 2.0 -1.5 84.0- 4.7 2.7---- 7.7------------
1994-06-17 11.5 15.5 7.8 4.6 80.5- 6.3 3.3---- 0.0------------
1994-06-16 13.3 19.0 4.9 1.7 80.0- 5.3 3.7---- 0.7------------
302.8 ms

 

Źródłem pochodzenia danych jest Instytut Meteorologii i Gospodarki Wodnej – Państwowy Instytut Badawczy. Dane Instytutu Meteorologii i Gospodarki Wodnej – Państwowego Instytutu Badawczego zostały przetworzone.

Dane źródłowe można odnaleźć na stronie https://dane.imgw.pl